createdAt,value
2022-09-21T00:00:37.570Z,2.83
2022-09-21T00:03:05.605Z,2.97
2022-09-21T00:05:33.950Z,3.25
2022-09-21T00:08:05.591Z,3.40
2022-09-21T00:10:33.227Z,3.28
2022-09-21T00:13:02.894Z,3.50
2022-09-21T00:15:31.148Z,3.28
2022-09-21T00:17:59.690Z,3.22
2022-09-21T00:20:27.810Z,3.25
2022-09-21T00:22:55.545Z,2.83
2022-09-21T00:25:23.128Z,2.97
2022-09-21T00:27:51.351Z,3.08
2022-09-21T00:30:19.026Z,2.92
2022-09-21T00:32:46.586Z,3.08
2022-09-21T00:35:14.098Z,3.33
2022-09-21T00:37:41.901Z,3.13
2022-09-21T00:40:09.997Z,2.90
2022-09-21T00:42:37.815Z,2.90
2022-09-21T00:45:05.889Z,3.10
2022-09-21T00:47:39.899Z,2.78
2022-09-21T00:50:11.431Z,2.70
2022-09-21T00:52:41.636Z,2.78
2022-09-21T00:55:19.908Z,2.85
2022-09-21T00:57:49.115Z,2.80
2022-09-21T01:00:16.631Z,2.67
2022-09-21T01:02:44.195Z,2.38
2022-09-21T01:05:11.808Z,2.60
2022-09-21T01:07:40.850Z,3.35
2022-09-21T01:10:11.886Z,3.45
2022-09-21T01:12:39.394Z,3.07
2022-09-21T01:15:07.096Z,3.35
2022-09-21T01:17:34.606Z,3.20
2022-09-21T01:20:08.292Z,2.80
2022-09-21T01:23:05.495Z,2.95
2022-09-21T01:25:56.302Z,3.17
2022-09-21T01:28:23.814Z,2.78
2022-09-21T01:30:53.494Z,3.03
2022-09-21T01:33:27.272Z,2.50
2022-09-21T01:36:00.657Z,2.72
2022-09-21T01:38:28.158Z,2.90
2022-09-21T01:41:00.578Z,2.85
2022-09-21T01:43:32.349Z,2.60
2022-09-21T01:46:03.696Z,2.72
2022-09-21T01:48:37.473Z,2.55
2022-09-21T01:51:07.834Z,2.90
2022-09-21T01:53:38.674Z,2.85
2022-09-21T01:56:18.965Z,2.53
2022-09-21T01:58:50.136Z,2.60
2022-09-21T02:01:20.567Z,3.00
2022-09-21T02:03:50.511Z,2.63
2022-09-21T02:06:18.685Z,2.50
2022-09-21T02:08:46.724Z,2.78
2022-09-21T02:11:14.464Z,2.83
2022-09-21T02:13:45.058Z,2.47
2022-09-21T02:16:28.413Z,2.78
2022-09-21T02:19:10.700Z,2.70
2022-09-21T02:21:45.353Z,2.65
2022-09-21T02:24:22.669Z,3.10
2022-09-21T02:26:54.904Z,2.30
2022-09-21T02:29:32.260Z,2.28
2022-09-21T02:32:05.172Z,3.08
2022-09-21T02:34:45.763Z,2.63
2022-09-21T02:37:39.466Z,2.50
2022-09-21T02:40:10.024Z,2.53
2022-09-21T02:42:40.827Z,3.00
2022-09-21T02:45:12.042Z,2.90
2022-09-21T02:47:43.879Z,2.15
2022-09-21T02:52:40.635Z,2.58
2022-09-21T02:55:08.777Z,2.90
2022-09-21T02:57:36.868Z,2.35
2022-09-21T03:00:05.297Z,2.05
2022-09-21T03:02:37.099Z,2.60
2022-09-21T03:05:05.275Z,2.40
2022-09-21T03:07:32.937Z,2.67
2022-09-21T03:10:00.518Z,2.80
2022-09-21T03:12:28.330Z,2.88
2022-09-21T03:14:56.008Z,2.38
2022-09-21T03:17:23.521Z,2.80
2022-09-21T03:19:51.598Z,2.50
2022-09-21T03:22:19.191Z,2.60
2022-09-21T03:24:46.751Z,2.50
2022-09-21T03:27:24.004Z,2.30
2022-09-21T03:29:52.399Z,2.13
2022-09-21T03:32:19.961Z,2.50
2022-09-21T03:34:47.532Z,2.47
2022-09-21T03:37:15.055Z,3.22
2022-09-21T03:39:42.575Z,2.20
2022-09-21T03:42:10.534Z,2.60
2022-09-21T03:44:38.105Z,2.92
2022-09-21T03:47:06.572Z,2.90
2022-09-21T03:49:34.976Z,2.53
2022-09-21T03:52:02.916Z,2.65
2022-09-21T03:54:30.462Z,2.70
2022-09-21T03:56:57.997Z,2.60
2022-09-21T03:59:25.648Z,2.55
2022-09-21T04:01:53.205Z,2.38
2022-09-21T04:04:21.572Z,2.67
2022-09-21T04:06:49.121Z,2.45
2022-09-21T04:09:16.711Z,2.90
2022-09-21T04:11:45.872Z,2.88
2022-09-21T04:14:13.656Z,2.40
2022-09-21T04:16:41.282Z,2.80
2022-09-21T04:19:08.858Z,2.60
2022-09-21T04:21:36.424Z,2.60
2022-09-21T04:24:04.226Z,2.20
2022-09-21T04:26:32.982Z,2.25
2022-09-21T04:29:01.078Z,2.97
2022-09-21T04:31:29.338Z,2.80
2022-09-21T04:33:57.820Z,2.60
2022-09-21T04:36:26.034Z,2.45
2022-09-21T04:38:53.549Z,2.30
2022-09-21T04:41:22.346Z,2.60
2022-09-21T04:43:49.879Z,2.40
2022-09-21T04:46:19.936Z,2.80
2022-09-21T04:48:47.931Z,2.90
2022-09-21T04:51:15.851Z,2.15
2022-09-21T04:53:44.512Z,2.78
2022-09-21T04:56:14.660Z,2.60
2022-09-21T04:58:42.555Z,2.75
2022-09-21T05:01:11.629Z,3.03
2022-09-21T05:03:39.555Z,2.65
2022-09-21T05:06:07.698Z,2.70
2022-09-21T05:08:53.816Z,2.80
2022-09-21T05:11:21.545Z,2.92
2022-09-21T05:13:49.234Z,3.42
2022-09-21T05:16:17.241Z,2.80
2022-09-21T05:18:45.492Z,2.78
2022-09-21T05:21:13.848Z,2.55
2022-09-21T05:23:41.933Z,2.80
2022-09-21T05:26:09.543Z,3.03
2022-09-21T05:28:40.078Z,3.08
2022-09-21T05:31:26.568Z,3.10
2022-09-21T05:33:59.946Z,3.20
2022-09-21T05:36:38.104Z,3.10
2022-09-21T05:39:06.958Z,2.80
2022-09-21T05:41:34.868Z,3.10
2022-09-21T05:44:02.583Z,3.17
2022-09-21T05:46:41.646Z,3.00
2022-09-21T05:49:18.392Z,2.83
2022-09-21T05:51:48.796Z,3.10
2022-09-21T05:54:19.807Z,2.95
2022-09-21T05:56:53.490Z,3.50
2022-09-21T05:59:26.794Z,2.85
2022-09-21T06:02:00.381Z,3.35
2022-09-21T06:04:28.148Z,3.30
2022-09-21T06:06:55.715Z,3.13
2022-09-21T06:09:23.447Z,3.15
2022-09-21T06:11:51.158Z,3.50
2022-09-21T06:14:24.545Z,3.20
2022-09-21T06:16:52.751Z,3.20
2022-09-21T06:19:20.329Z,3.33
2022-09-21T06:21:48.111Z,3.42
2022-09-21T06:24:15.662Z,3.35
2022-09-21T06:26:43.348Z,3.83
2022-09-21T06:29:10.878Z,3.60
2022-09-21T06:31:38.500Z,4.00
2022-09-21T06:34:06.068Z,3.90
2022-09-21T06:36:33.732Z,4.20
2022-09-21T06:39:01.379Z,4.10
2022-09-21T06:41:28.902Z,4.10
2022-09-21T06:43:57.127Z,4.20
2022-09-21T06:46:24.833Z,4.15
2022-09-21T06:48:52.566Z,3.90
2022-09-21T06:51:21.568Z,4.30
2022-09-21T06:53:49.215Z,4.15
2022-09-21T06:56:16.807Z,4.63
2022-09-21T06:58:47.459Z,3.80
2022-09-21T07:01:15.827Z,4.60
2022-09-21T07:03:44.151Z,4.63
2022-09-21T07:06:14.102Z,4.68
2022-09-21T07:11:30.245Z,3.90
2022-09-21T07:13:58.549Z,4.75
2022-09-21T07:16:26.211Z,4.22
2022-09-21T07:18:53.818Z,3.92
2022-09-21T07:21:21.746Z,4.05
2022-09-21T07:23:49.284Z,4.50
2022-09-21T07:26:16.930Z,4.30
2022-09-21T07:28:44.464Z,3.65
2022-09-21T07:31:16.437Z,3.97
2022-09-21T07:33:46.468Z,3.60
2022-09-21T07:36:14.110Z,3.63
2022-09-21T07:38:42.558Z,3.40
2022-09-21T07:41:11.502Z,3.75
2022-09-21T07:43:40.222Z,2.90
2022-09-21T07:46:08.220Z,3.10
2022-09-21T07:48:35.845Z,2.72
2022-09-21T07:51:05.989Z,2.65
2022-09-21T07:53:34.310Z,2.88
2022-09-21T07:56:05.514Z,2.35
2022-09-21T07:58:51.814Z,2.88
2022-09-21T08:01:19.403Z,2.50
2022-09-21T08:03:49.638Z,2.20
2022-09-21T08:06:17.278Z,1.65
2022-09-21T08:08:47.753Z,1.92
2022-09-21T08:11:19.653Z,1.70
2022-09-21T08:16:16.060Z,2.58
2022-09-21T08:18:44.135Z,1.65
2022-09-21T08:21:12.343Z,1.23
2022-09-21T08:23:42.751Z,1.50
2022-09-21T08:26:19.241Z,1.27
2022-09-21T08:28:49.198Z,1.50
2022-09-21T08:31:19.510Z,1.63
2022-09-21T08:33:47.786Z,1.20
2022-09-21T08:36:15.585Z,1.30
2022-09-21T08:38:44.958Z,1.00
2022-09-21T08:41:16.365Z,1.17
2022-09-21T08:43:45.922Z,1.13
2022-09-21T08:46:16.173Z,1.27
2022-09-21T08:48:46.570Z,1.20
2022-09-21T08:51:22.868Z,0.85
2022-09-21T08:53:53.062Z,1.08
2022-09-21T08:56:21.659Z,1.10
2022-09-21T08:58:49.267Z,1.10
2022-09-21T09:01:49.551Z,1.05
2022-09-21T09:04:24.189Z,1.13
2022-09-21T09:07:04.038Z,0.90
2022-09-21T09:09:31.715Z,0.80
2022-09-21T09:12:11.035Z,0.90
2022-09-21T09:14:51.089Z,1.30
2022-09-21T09:17:34.114Z,1.25
2022-09-21T09:20:05.164Z,1.52
2022-09-21T09:22:35.292Z,1.25
2022-09-21T09:25:05.210Z,1.38
2022-09-21T09:27:37.332Z,1.10
2022-09-21T09:30:04.901Z,1.17
2022-09-21T09:32:41.587Z,1.10
2022-09-21T09:35:21.517Z,0.93
2022-09-21T09:37:49.855Z,1.20
2022-09-21T09:40:20.820Z,1.00
2022-09-21T09:43:00.188Z,0.80
2022-09-21T09:45:41.570Z,0.80
2022-09-21T09:48:18.562Z,1.00
2022-09-21T09:50:46.201Z,1.17
2022-09-21T09:53:16.067Z,2.00
2022-09-21T09:55:48.934Z,1.17
2022-09-21T09:58:21.321Z,1.20
2022-09-21T10:00:51.868Z,1.23
2022-09-21T10:03:22.344Z,1.10
2022-09-21T10:05:50.337Z,1.30
2022-09-21T10:08:36.589Z,1.05
2022-09-21T10:11:05.496Z,1.00
2022-09-21T10:13:40.655Z,0.98
2022-09-21T10:16:13.393Z,1.00
2022-09-21T10:18:47.334Z,1.20
2022-09-21T10:21:25.143Z,0.88
2022-09-21T10:24:04.982Z,0.90
2022-09-21T10:26:35.306Z,0.70
2022-09-21T10:29:17.245Z,0.70
2022-09-21T10:31:57.212Z,1.10
2022-09-21T10:34:27.246Z,0.85
2022-09-21T10:36:56.136Z,0.90
2022-09-21T10:39:26.902Z,0.80
2022-09-21T10:41:59.384Z,0.90
2022-09-21T10:44:35.281Z,0.95
2022-09-21T10:47:16.657Z,0.95
2022-09-21T10:49:55.337Z,0.80
2022-09-21T10:52:34.746Z,1.00
2022-09-21T10:55:02.655Z,0.70
2022-09-21T10:57:32.513Z,0.70
2022-09-21T11:00:12.984Z,0.90
2022-09-21T11:02:42.959Z,1.00
2022-09-21T11:05:19.086Z,1.02
2022-09-21T11:07:52.958Z,0.82
2022-09-21T11:10:49.044Z,0.70
2022-09-21T11:13:17.762Z,0.90
2022-09-21T11:15:50.441Z,0.85
2022-09-21T11:18:41.415Z,0.77
2022-09-21T11:21:20.395Z,0.80
2022-09-21T11:24:00.267Z,1.15
2022-09-21T11:26:35.074Z,0.90
2022-09-21T11:32:09.306Z,0.88
2022-09-21T11:34:53.573Z,0.73
2022-09-21T11:37:21.260Z,1.13
2022-09-21T11:39:49.235Z,0.80
2022-09-21T11:42:32.931Z,0.90
2022-09-21T11:45:02.090Z,0.93
2022-09-21T11:47:44.987Z,0.73
2022-09-21T11:50:31.601Z,0.70
2022-09-21T11:53:18.178Z,0.70
2022-09-21T11:56:00.880Z,0.50
2022-09-21T11:58:34.377Z,0.80
2022-09-21T12:01:08.442Z,0.80
2022-09-21T12:03:36.271Z,0.55
2022-09-21T12:06:07.204Z,0.80
2022-09-21T12:08:55.072Z,0.43
2022-09-21T12:11:35.122Z,0.60
2022-09-21T12:14:03.025Z,0.70
2022-09-21T12:16:42.653Z,0.60
2022-09-21T12:19:15.481Z,0.70
2022-09-21T12:21:46.578Z,0.70
2022-09-21T12:24:36.246Z,0.90
2022-09-21T12:27:06.276Z,0.73
2022-09-21T12:29:43.163Z,0.63
2022-09-21T12:32:25.986Z,0.60
2022-09-21T12:34:58.654Z,0.60
2022-09-21T12:37:31.628Z,0.70
2022-09-21T12:39:59.204Z,0.57
2022-09-21T12:42:33.178Z,0.80
2022-09-21T12:45:04.060Z,0.35
2022-09-21T12:47:34.332Z,0.45
2022-09-21T12:50:09.336Z,0.80
2022-09-21T12:52:37.567Z,0.80
2022-09-21T12:55:14.975Z,0.80
2022-09-21T12:58:15.789Z,1.20
2022-09-21T13:01:00.359Z,0.57
2022-09-21T13:03:37.532Z,0.60
2022-09-21T13:06:17.870Z,0.55
2022-09-21T13:08:47.291Z,0.55
2022-09-21T13:11:21.001Z,0.70
2022-09-21T13:13:53.766Z,0.65
2022-09-21T13:16:26.642Z,0.60
2022-09-21T13:19:17.531Z,0.55
2022-09-21T13:21:45.353Z,0.50
2022-09-21T13:24:29.827Z,0.50
2022-09-21T13:27:06.141Z,0.50
2022-09-21T13:29:35.016Z,0.68
2022-09-21T13:32:14.853Z,0.70
2022-09-21T13:34:43.249Z,0.60
2022-09-21T13:37:13.985Z,0.93
2022-09-21T13:39:45.167Z,0.52
2022-09-21T13:42:31.569Z,0.57
2022-09-21T13:45:00.016Z,0.65
2022-09-21T13:47:39.030Z,0.43
2022-09-21T13:50:21.591Z,0.73
2022-09-21T13:52:52.076Z,0.60
2022-09-21T13:55:30.406Z,0.63
2022-09-21T13:57:59.380Z,0.60
2022-09-21T14:00:34.728Z,0.70
2022-09-21T14:03:08.324Z,0.80
2022-09-21T14:05:42.018Z,0.70
2022-09-21T14:08:15.808Z,0.73
2022-09-21T14:10:57.581Z,0.65
2022-09-21T14:13:25.085Z,0.60
2022-09-21T14:15:52.615Z,0.77
2022-09-21T14:18:22.191Z,0.50
2022-09-21T14:21:08.990Z,0.60
2022-09-21T14:23:37.333Z,0.70
2022-09-21T14:26:40.390Z,0.65
2022-09-21T14:29:12.831Z,0.70
2022-09-21T14:31:40.549Z,0.85
2022-09-21T14:34:13.679Z,0.55
2022-09-21T14:36:43.891Z,0.50
2022-09-21T14:39:19.859Z,0.57
2022-09-21T14:41:49.444Z,0.60
2022-09-21T14:44:26.378Z,0.50
2022-09-21T14:47:00.079Z,0.70
2022-09-21T14:49:40.308Z,0.50
2022-09-21T14:52:27.661Z,0.60
2022-09-21T14:55:17.688Z,0.60
2022-09-21T14:57:55.702Z,0.77
2022-09-21T15:00:26.176Z,0.43
2022-09-21T15:03:10.566Z,0.63
2022-09-21T15:05:41.057Z,0.50
2022-09-21T15:08:39.083Z,0.68
2022-09-21T15:11:27.188Z,0.50
2022-09-21T15:14:05.112Z,0.60
2022-09-21T15:16:39.803Z,0.50
2022-09-21T15:19:17.169Z,0.60
2022-09-21T15:21:46.171Z,0.60
2022-09-21T15:24:19.028Z,0.55
2022-09-21T15:26:47.136Z,0.63
2022-09-21T15:29:33.671Z,0.50
2022-09-21T15:32:01.762Z,0.60
2022-09-21T15:34:29.519Z,0.90
2022-09-21T15:37:06.844Z,0.80
2022-09-21T15:39:34.700Z,0.85
2022-09-21T15:42:08.372Z,0.70
2022-09-21T15:44:37.392Z,0.73
2022-09-21T15:47:08.327Z,0.70
2022-09-21T15:49:36.536Z,0.93
2022-09-21T15:52:09.103Z,0.77
2022-09-21T15:54:40.749Z,0.60
2022-09-21T15:57:25.231Z,0.90
2022-09-21T15:59:53.898Z,0.80
2022-09-21T16:02:23.024Z,0.60
2022-09-21T16:04:52.252Z,0.80
2022-09-21T16:07:25.891Z,0.75
2022-09-21T16:09:53.438Z,0.65
2022-09-21T16:12:41.327Z,1.10
2022-09-21T16:15:29.119Z,0.93
2022-09-21T16:18:06.862Z,1.00
2022-09-21T16:20:48.089Z,0.90
2022-09-21T16:23:17.614Z,1.00
2022-09-21T16:25:48.121Z,0.68
2022-09-21T16:28:16.230Z,0.88
2022-09-21T16:30:55.075Z,0.90
2022-09-21T16:33:35.857Z,1.00
2022-09-21T16:36:04.365Z,0.85
2022-09-21T16:38:33.777Z,1.23
2022-09-21T16:41:02.534Z,0.95
2022-09-21T16:43:30.267Z,0.88
2022-09-21T16:45:58.173Z,1.10
2022-09-21T16:48:25.750Z,0.90
2022-09-21T16:50:54.160Z,1.30
2022-09-21T16:53:23.471Z,1.00
2022-09-21T16:55:53.158Z,1.27
2022-09-21T16:58:23.964Z,1.08
2022-09-21T17:00:56.129Z,0.82
2022-09-21T17:03:24.227Z,1.15
2022-09-21T17:05:51.754Z,1.10
2022-09-21T17:08:19.560Z,1.40
2022-09-21T17:10:47.215Z,1.27
2022-09-21T17:13:16.194Z,0.98
2022-09-21T17:15:46.242Z,1.08
2022-09-21T17:18:13.999Z,1.30
2022-09-21T17:20:42.857Z,1.20
2022-09-21T17:23:10.871Z,1.05
2022-09-21T17:25:38.603Z,1.15
2022-09-21T17:28:13.189Z,1.23
2022-09-21T17:30:42.413Z,1.20
2022-09-21T17:33:11.026Z,1.40
2022-09-21T17:35:42.151Z,1.75
2022-09-21T17:38:14.075Z,1.40
2022-09-21T17:40:42.951Z,1.50
2022-09-21T17:43:22.120Z,1.55
2022-09-21T17:45:55.824Z,1.42
2022-09-21T17:48:23.648Z,1.30
2022-09-21T17:50:51.419Z,1.33
2022-09-21T17:53:36.686Z,1.10
2022-09-21T17:56:15.771Z,1.20
2022-09-21T17:58:45.886Z,1.25
2022-09-21T18:01:26.287Z,1.20
2022-09-21T18:03:54.019Z,1.30
2022-09-21T18:06:22.621Z,1.17
2022-09-21T18:08:50.423Z,1.10
2022-09-21T18:11:24.738Z,1.20
2022-09-21T18:13:56.508Z,1.13
2022-09-21T18:16:24.109Z,1.25
2022-09-21T18:19:10.354Z,1.45
2022-09-21T18:21:41.417Z,1.50
2022-09-21T18:24:28.686Z,1.30
2022-09-21T18:26:58.794Z,1.33
2022-09-21T18:29:41.634Z,1.30
2022-09-21T18:32:21.588Z,1.38
2022-09-21T18:34:52.039Z,1.40
2022-09-21T18:37:30.042Z,1.50
2022-09-21T18:40:21.714Z,1.25
2022-09-21T18:42:53.319Z,1.80
2022-09-21T18:45:31.871Z,1.35
2022-09-21T18:48:13.159Z,1.52
2022-09-21T18:50:50.034Z,1.48
2022-09-21T18:53:21.422Z,1.52
2022-09-21T18:55:49.297Z,1.50
2022-09-21T18:58:17.023Z,1.48
2022-09-21T19:00:44.672Z,1.55
2022-09-21T19:03:19.172Z,1.58
2022-09-21T19:06:16.416Z,1.52
2022-09-21T19:08:55.509Z,1.50
2022-09-21T19:11:34.691Z,1.70
2022-09-21T19:14:21.175Z,1.55
2022-09-21T19:16:51.575Z,1.58
2022-09-21T19:19:26.709Z,1.70
2022-09-21T19:22:13.977Z,1.60
2022-09-21T19:25:02.342Z,1.95
2022-09-21T19:27:39.893Z,1.70
2022-09-21T19:30:14.806Z,1.90
2022-09-21T19:32:47.022Z,2.13
2022-09-21T19:35:25.039Z,1.90
2022-09-21T19:37:54.308Z,1.90
2022-09-21T19:40:24.044Z,2.10
2022-09-21T19:42:54.584Z,2.10
2022-09-21T19:45:25.710Z,2.35
2022-09-21T19:47:54.494Z,2.30
2022-09-21T19:50:22.450Z,1.88
2022-09-21T19:52:50.767Z,1.77
2022-09-21T19:55:40.544Z,1.80
2022-09-21T19:58:27.182Z,1.98
2022-09-21T20:00:56.637Z,2.00
2022-09-21T20:03:31.905Z,1.90
2022-09-21T20:06:07.669Z,2.50
2022-09-21T20:08:53.768Z,2.05
2022-09-21T20:11:34.761Z,2.35
2022-09-21T20:14:02.683Z,1.90
2022-09-21T20:16:33.809Z,2.58
2022-09-21T20:19:04.533Z,2.00
2022-09-21T20:21:39.542Z,2.20
2022-09-21T20:24:15.739Z,2.38
2022-09-21T20:26:43.915Z,2.40
2022-09-21T20:29:11.979Z,2.10
2022-09-21T20:31:39.542Z,2.10
2022-09-21T20:34:07.127Z,2.47
2022-09-21T20:36:34.743Z,2.35
2022-09-21T20:39:04.029Z,1.92
2022-09-21T20:41:31.667Z,2.40
2022-09-21T20:43:59.326Z,2.10
2022-09-21T20:46:26.906Z,2.10
2022-09-21T20:49:02.238Z,2.25
2022-09-21T20:51:29.757Z,2.83
2022-09-21T20:53:57.634Z,2.83
2022-09-21T20:56:25.211Z,2.08
2022-09-21T20:58:52.837Z,2.90
2022-09-21T21:01:20.569Z,2.85
2022-09-21T21:03:48.218Z,2.50
2022-09-21T21:06:18.531Z,2.65
2022-09-21T21:08:46.370Z,2.83
2022-09-21T21:11:17.354Z,3.10
2022-09-21T21:13:44.886Z,3.23
2022-09-21T21:16:13.039Z,2.60
2022-09-21T21:18:43.870Z,3.00
2022-09-21T21:21:11.460Z,3.10
2022-09-21T21:23:57.975Z,2.80
2022-09-21T21:26:43.870Z,3.03
2022-09-21T21:29:13.130Z,3.30
2022-09-21T21:31:40.972Z,3.17
2022-09-21T21:34:08.610Z,3.17
2022-09-21T21:36:36.207Z,3.15
2022-09-21T21:39:03.843Z,3.28
2022-09-21T21:41:32.543Z,3.05
2022-09-21T21:44:00.203Z,3.13
2022-09-21T21:46:27.774Z,3.15
2022-09-21T21:48:55.427Z,3.08
2022-09-21T21:51:23.112Z,2.78
2022-09-21T21:53:51.036Z,3.40
2022-09-21T21:56:20.365Z,3.40
2022-09-21T21:58:47.859Z,3.40
2022-09-21T22:01:21.799Z,3.40
2022-09-21T22:03:53.031Z,2.85
2022-09-21T22:06:21.144Z,3.30
2022-09-21T22:08:48.992Z,3.38
2022-09-21T22:11:17.600Z,3.08
2022-09-21T22:13:45.749Z,3.53
2022-09-21T22:16:14.924Z,2.92
2022-09-21T22:18:43.028Z,3.67
2022-09-21T22:21:12.382Z,3.40
2022-09-21T22:23:40.583Z,3.60
2022-09-21T22:26:10.930Z,3.67
2022-09-21T22:28:40.082Z,3.60
2022-09-21T22:31:14.277Z,3.53
2022-09-21T22:33:43.169Z,3.13
2022-09-21T22:36:11.890Z,3.13
2022-09-21T22:38:42.934Z,3.72
2022-09-21T22:41:17.019Z,4.00
2022-09-21T22:43:45.129Z,3.50
2022-09-21T22:46:13.014Z,3.72
2022-09-21T22:48:40.575Z,3.55
2022-09-21T22:51:08.182Z,3.60
2022-09-21T22:53:35.918Z,3.63
2022-09-21T22:56:03.582Z,3.50
2022-09-21T22:58:31.838Z,3.30
2022-09-21T23:01:03.567Z,3.47
2022-09-21T23:03:31.121Z,3.63
2022-09-21T23:05:59.121Z,3.47
2022-09-21T23:08:26.710Z,3.65
2022-09-21T23:10:54.374Z,3.72
2022-09-21T23:13:21.954Z,3.42
2022-09-21T23:15:50.133Z,3.20
2022-09-21T23:18:17.947Z,3.65
2022-09-21T23:20:46.093Z,3.50
2022-09-21T23:23:14.020Z,3.97
2022-09-21T23:25:41.585Z,3.90
2022-09-21T23:28:09.207Z,3.83
2022-09-21T23:30:36.735Z,3.65
2022-09-21T23:33:04.301Z,3.75
2022-09-21T23:35:32.015Z,3.80
2022-09-21T23:37:59.552Z,4.03
2022-09-21T23:40:27.195Z,3.92
2022-09-21T23:42:54.784Z,3.60
2022-09-21T23:45:22.303Z,3.47
2022-09-21T23:47:49.894Z,3.22
2022-09-21T23:50:18.011Z,3.47
2022-09-21T23:52:45.630Z,3.45
2022-09-21T23:55:13.200Z,3.53
2022-09-21T23:57:40.710Z,3.83
